sensor_id;sensor_type;location;lat;lon;timestamp;temperature;humidity
8420;DHT22;4247;48.550;8.822;2024-03-07T00:01:42;6.10;99.90
8420;DHT22;4247;48.550;8.822;2024-03-07T00:04:09;6.00;99.90
8420;DHT22;4247;48.550;8.822;2024-03-07T00:06:35;6.00;99.90
8420;DHT22;4247;48.550;8.822;2024-03-07T00:09:02;6.00;99.90
8420;DHT22;4247;48.550;8.822;2024-03-07T00:11:29;6.00;99.90
8420;DHT22;4247;48.550;8.822;2024-03-07T00:13:57;6.00;99.90
8420;DHT22;4247;48.550;8.822;2024-03-07T00:16:25;6.00;99.90
8420;DHT22;4247;48.550;8.822;2024-03-07T00:18:52;6.00;99.90
8420;DHT22;4247;48.550;8.822;2024-03-07T00:21:18;6.00;99.90
8420;DHT22;4247;48.550;8.822;2024-03-07T00:23:45;6.00;99.90
8420;DHT22;4247;48.550;8.822;2024-03-07T00:26:12;6.00;99.90
8420;DHT22;4247;48.550;8.822;2024-03-07T00:28:39;6.00;99.90
8420;DHT22;4247;48.550;8.822;2024-03-07T00:31:07;6.10;99.90
8420;DHT22;4247;48.550;8.822;2024-03-07T00:33:34;6.10;99.90
8420;DHT22;4247;48.550;8.822;2024-03-07T00:36:01;6.10;99.90
8420;DHT22;4247;48.550;8.822;2024-03-07T00:38:28;6.10;99.90
8420;DHT22;4247;48.550;8.822;2024-03-07T00:40:54;6.10;99.90
8420;DHT22;4247;48.550;8.822;2024-03-07T00:43:21;6.10;99.90
8420;DHT22;4247;48.550;8.822;2024-03-07T00:45:48;6.10;99.90
8420;DHT22;4247;48.550;8.822;2024-03-07T00:48:16;6.00;99.90
8420;DHT22;4247;48.550;8.822;2024-03-07T00:50:43;6.00;99.90
8420;DHT22;4247;48.550;8.822;2024-03-07T00:53:10;6.00;99.90
8420;DHT22;4247;48.550;8.822;2024-03-07T00:55:37;6.00;99.90
8420;DHT22;4247;48.550;8.822;2024-03-07T00:58:04;6.00;99.90
8420;DHT22;4247;48.550;8.822;2024-03-07T01:00:30;6.00;99.90
8420;DHT22;4247;48.550;8.822;2024-03-07T01:02:57;6.00;99.90
8420;DHT22;4247;48.550;8.822;2024-03-07T01:05:25;6.00;99.90
8420;DHT22;4247;48.550;8.822;2024-03-07T01:07:52;5.90;99.90
8420;DHT22;4247;48.550;8.822;2024-03-07T01:10:21;5.90;99.90
8420;DHT22;4247;48.550;8.822;2024-03-07T01:12:47;5.90;99.90
8420;DHT22;4247;48.550;8.822;2024-03-07T01:15:15;5.90;99.90
8420;DHT22;4247;48.550;8.822;2024-03-07T01:17:42;5.90;99.90
8420;DHT22;4247;48.550;8.822;2024-03-07T01:20:10;5.80;99.90
8420;DHT22;4247;48.550;8.822;2024-03-07T01:22:38;5.80;99.90
8420;DHT22;4247;48.550;8.822;2024-03-07T01:25:05;5.80;99.90
8420;DHT22;4247;48.550;8.822;2024-03-07T01:27:32;5.80;99.90
8420;DHT22;4247;48.550;8.822;2024-03-07T01:29:59;5.80;99.90
8420;DHT22;4247;48.550;8.822;2024-03-07T01:32:27;5.80;99.90
8420;DHT22;4247;48.550;8.822;2024-03-07T01:34:53;5.80;99.90
8420;DHT22;4247;48.550;8.822;2024-03-07T01:37:20;5.80;99.90
8420;DHT22;4247;48.550;8.822;2024-03-07T01:39:48;5.70;99.90
8420;DHT22;4247;48.550;8.822;2024-03-07T01:42:15;5.70;99.90
8420;DHT22;4247;48.550;8.822;2024-03-07T01:44:42;5.70;99.90
8420;DHT22;4247;48.550;8.822;2024-03-07T01:47:09;5.60;99.90
8420;DHT22;4247;48.550;8.822;2024-03-07T01:49:37;5.60;99.90
8420;DHT22;4247;48.550;8.822;2024-03-07T01:52:05;5.60;99.90
8420;DHT22;4247;48.550;8.822;2024-03-07T01:54:32;5.60;99.90
8420;DHT22;4247;48.550;8.822;2024-03-07T01:57:01;5.60;99.90
8420;DHT22;4247;48.550;8.822;2024-03-07T01:59:29;5.50;99.90
8420;DHT22;4247;48.550;8.822;2024-03-07T02:01:57;5.50;99.90
8420;DHT22;4247;48.550;8.822;2024-03-07T02:04:26;5.50;99.90
8420;DHT22;4247;48.550;8.822;2024-03-07T02:06:53;5.40;99.90
8420;DHT22;4247;48.550;8.822;2024-03-07T02:09:20;5.40;99.90
8420;DHT22;4247;48.550;8.822;2024-03-07T02:11:47;5.40;99.90
8420;DHT22;4247;48.550;8.822;2024-03-07T02:14:16;5.40;99.90
8420;DHT22;4247;48.550;8.822;2024-03-07T02:16:43;5.30;99.90
8420;DHT22;4247;48.550;8.822;2024-03-07T02:19:13;5.30;99.90
8420;DHT22;4247;48.550;8.822;2024-03-07T02:21:42;5.20;99.90
8420;DHT22;4247;48.550;8.822;2024-03-07T02:24:09;5.20;99.90
8420;DHT22;4247;48.550;8.822;2024-03-07T02:26:35;5.10;99.90
8420;DHT22;4247;48.550;8.822;2024-03-07T02:29:05;5.10;99.90
8420;DHT22;4247;48.550;8.822;2024-03-07T02:31:31;5.10;99.90
8420;DHT22;4247;48.550;8.822;2024-03-07T02:34:02;5.00;99.90
8420;DHT22;4247;48.550;8.822;2024-03-07T02:36:29;5.00;99.90
8420;DHT22;4247;48.550;8.822;2024-03-07T02:38:57;5.00;99.90
8420;DHT22;4247;48.550;8.822;2024-03-07T02:41:24;5.00;99.90
8420;DHT22;4247;48.550;8.822;2024-03-07T02:43:51;5.00;99.90
8420;DHT22;4247;48.550;8.822;2024-03-07T02:46:18;4.90;99.90
8420;DHT22;4247;48.550;8.822;2024-03-07T02:48:45;5.00;99.90
8420;DHT22;4247;48.550;8.822;2024-03-07T02:51:12;4.90;99.90
8420;DHT22;4247;48.550;8.822;2024-03-07T02:53:38;4.90;99.90
8420;DHT22;4247;48.550;8.822;2024-03-07T02:56:07;4.90;99.90
8420;DHT22;4247;48.550;8.822;2024-03-07T02:58:35;4.90;99.90
8420;DHT22;4247;48.550;8.822;2024-03-07T03:01:02;4.90;99.90
8420;DHT22;4247;48.550;8.822;2024-03-07T03:03:29;4.90;99.90
8420;DHT22;4247;48.550;8.822;2024-03-07T03:05:57;4.80;99.90
8420;DHT22;4247;48.550;8.822;2024-03-07T03:08:25;4.70;99.90
8420;DHT22;4247;48.550;8.822;2024-03-07T03:10:52;4.70;99.90
8420;DHT22;4247;48.550;8.822;2024-03-07T03:13:20;4.60;99.90
8420;DHT22;4247;48.550;8.822;2024-03-07T03:15:47;4.60;99.90
8420;DHT22;4247;48.550;8.822;2024-03-07T03:18:14;4.50;99.90
8420;DHT22;4247;48.550;8.822;2024-03-07T03:20:41;4.50;99.90
8420;DHT22;4247;48.550;8.822;2024-03-07T03:23:09;4.50;99.90
8420;DHT22;4247;48.550;8.822;2024-03-07T03:25:38;4.50;99.90
8420;DHT22;4247;48.550;8.822;2024-03-07T03:28:06;4.40;99.90
8420;DHT22;4247;48.550;8.822;2024-03-07T03:30:36;4.40;99.90
8420;DHT22;4247;48.550;8.822;2024-03-07T03:33:04;4.40;99.90
8420;DHT22;4247;48.550;8.822;2024-03-07T03:35:31;4.30;99.90
8420;DHT22;4247;48.550;8.822;2024-03-07T03:37:57;4.30;99.90
8420;DHT22;4247;48.550;8.822;2024-03-07T03:40:24;4.30;99.90
8420;DHT22;4247;48.550;8.822;2024-03-07T03:42:51;4.20;99.90
8420;DHT22;4247;48.550;8.822;2024-03-07T03:45:18;4.20;99.90
8420;DHT22;4247;48.550;8.822;2024-03-07T03:47:46;4.20;99.90
8420;DHT22;4247;48.550;8.822;2024-03-07T03:50:13;4.10;99.90
8420;DHT22;4247;48.550;8.822;2024-03-07T03:52:40;4.20;99.90
8420;DHT22;4247;48.550;8.822;2024-03-07T03:55:08;4.10;99.90
8420;DHT22;4247;48.550;8.822;2024-03-07T03:57:36;4.10;99.90
8420;DHT22;4247;48.550;8.822;2024-03-07T04:00:05;4.10;99.90
8420;DHT22;4247;48.550;8.822;2024-03-07T04:02:38;4.10;99.90
8420;DHT22;4247;48.550;8.822;2024-03-07T04:05:07;4.10;99.90
8420;DHT22;4247;48.550;8.822;2024-03-07T04:07:34;4.20;99.90
8420;DHT22;4247;48.550;8.822;2024-03-07T04:10:02;4.20;99.90
8420;DHT22;4247;48.550;8.822;2024-03-07T04:12:30;4.20;99.90
8420;DHT22;4247;48.550;8.822;2024-03-07T04:14:56;4.30;99.90
8420;DHT22;4247;48.550;8.822;2024-03-07T04:17:23;4.30;99.90
8420;DHT22;4247;48.550;8.822;2024-03-07T04:19:50;4.40;99.90
8420;DHT22;4247;48.550;8.822;2024-03-07T04:22:18;4.40;99.90
8420;DHT22;4247;48.550;8.822;2024-03-07T04:24:47;4.40;99.90
8420;DHT22;4247;48.550;8.822;2024-03-07T04:27:19;4.40;99.90
8420;DHT22;4247;48.550;8.822;2024-03-07T04:29:46;4.40;99.90
8420;DHT22;4247;48.550;8.822;2024-03-07T04:32:15;4.40;99.90
8420;DHT22;4247;48.550;8.822;2024-03-07T04:34:42;4.30;99.90
8420;DHT22;4247;48.550;8.822;2024-03-07T04:37:09;4.30;99.90
8420;DHT22;4247;48.550;8.822;2024-03-07T04:39:38;4.30;99.90
8420;DHT22;4247;48.550;8.822;2024-03-07T04:42:05;4.30;99.90
8420;DHT22;4247;48.550;8.822;2024-03-07T04:44:34;4.30;99.90
8420;DHT22;4247;48.550;8.822;2024-03-07T04:47:02;4.20;99.90
8420;DHT22;4247;48.550;8.822;2024-03-07T04:49:30;4.20;99.90
8420;DHT22;4247;48.550;8.822;2024-03-07T04:51:59;4.10;99.90
8420;DHT22;4247;48.550;8.822;2024-03-07T04:54:27;4.00;99.90
8420;DHT22;4247;48.550;8.822;2024-03-07T04:56:56;3.90;99.90
8420;DHT22;4247;48.550;8.822;2024-03-07T04:59:23;3.90;99.90
8420;DHT22;4247;48.550;8.822;2024-03-07T05:01:50;3.90;99.90
8420;DHT22;4247;48.550;8.822;2024-03-07T05:04:17;3.90;99.90
8420;DHT22;4247;48.550;8.822;2024-03-07T05:06:44;3.80;99.90
8420;DHT22;4247;48.550;8.822;2024-03-07T05:09:14;3.80;99.90
8420;DHT22;4247;48.550;8.822;2024-03-07T05:11:49;3.80;99.90
8420;DHT22;4247;48.550;8.822;2024-03-07T05:14:18;3.80;99.90
8420;DHT22;4247;48.550;8.822;2024-03-07T05:16:45;3.80;99.90
8420;DHT22;4247;48.550;8.822;2024-03-07T05:19:27;3.80;99.90
8420;DHT22;4247;48.550;8.822;2024-03-07T05:21:54;3.70;99.90
8420;DHT22;4247;48.550;8.822;2024-03-07T05:24:21;3.80;99.90
8420;DHT22;4247;48.550;8.822;2024-03-07T05:26:48;3.80;99.90
8420;DHT22;4247;48.550;8.822;2024-03-07T05:29:15;3.70;99.90
8420;DHT22;4247;48.550;8.822;2024-03-07T05:31:44;3.60;99.90
8420;DHT22;4247;48.550;8.822;2024-03-07T05:34:13;3.60;99.90
8420;DHT22;4247;48.550;8.822;2024-03-07T05:36:40;3.50;99.90
8420;DHT22;4247;48.550;8.822;2024-03-07T05:39:09;3.40;99.90
8420;DHT22;4247;48.550;8.822;2024-03-07T05:41:36;3.40;99.90
8420;DHT22;4247;48.550;8.822;2024-03-07T05:44:03;3.40;99.90
8420;DHT22;4247;48.550;8.822;2024-03-07T05:46:34;3.30;99.90
8420;DHT22;4247;48.550;8.822;2024-03-07T05:49:03;3.30;99.90
8420;DHT22;4247;48.550;8.822;2024-03-07T05:51:30;3.20;99.90
8420;DHT22;4247;48.550;8.822;2024-03-07T05:53:57;3.20;99.90
8420;DHT22;4247;48.550;8.822;2024-03-07T05:56:24;3.20;99.90
8420;DHT22;4247;48.550;8.822;2024-03-07T05:58:51;3.20;99.90
8420;DHT22;4247;48.550;8.822;2024-03-07T06:01:18;3.10;99.90
8420;DHT22;4247;48.550;8.822;2024-03-07T06:03:44;3.10;99.90
8420;DHT22;4247;48.550;8.822;2024-03-07T06:06:15;3.10;99.90
8420;DHT22;4247;48.550;8.822;2024-03-07T06:08:42;3.00;99.90
8420;DHT22;4247;48.550;8.822;2024-03-07T06:11:10;3.00;99.90
8420;DHT22;4247;48.550;8.822;2024-03-07T06:13:38;3.00;99.90
8420;DHT22;4247;48.550;8.822;2024-03-07T06:16:05;3.00;99.90
8420;DHT22;4247;48.550;8.822;2024-03-07T06:18:33;3.00;99.90
8420;DHT22;4247;48.550;8.822;2024-03-07T06:21:00;3.10;99.90
8420;DHT22;4247;48.550;8.822;2024-03-07T06:23:30;3.10;99.90
8420;DHT22;4247;48.550;8.822;2024-03-07T06:25:58;3.00;99.90
8420;DHT22;4247;48.550;8.822;2024-03-07T06:28:25;3.00;99.90
8420;DHT22;4247;48.550;8.822;2024-03-07T06:30:54;3.00;99.90
8420;DHT22;4247;48.550;8.822;2024-03-07T06:33:21;3.00;99.90
8420;DHT22;4247;48.550;8.822;2024-03-07T06:35:48;3.00;99.90
8420;DHT22;4247;48.550;8.822;2024-03-07T06:38:15;3.00;99.90
8420;DHT22;4247;48.550;8.822;2024-03-07T06:40:43;3.00;99.90
8420;DHT22;4247;48.550;8.822;2024-03-07T06:43:09;3.00;99.90
8420;DHT22;4247;48.550;8.822;2024-03-07T06:45:36;3.00;99.90
8420;DHT22;4247;48.550;8.822;2024-03-07T06:48:04;3.00;99.90
8420;DHT22;4247;48.550;8.822;2024-03-07T06:50:32;3.00;99.90
8420;DHT22;4247;48.550;8.822;2024-03-07T06:52:59;3.00;99.90
8420;DHT22;4247;48.550;8.822;2024-03-07T06:55:26;2.90;99.90
8420;DHT22;4247;48.550;8.822;2024-03-07T06:57:54;2.90;99.90
8420;DHT22;4247;48.550;8.822;2024-03-07T07:00:21;2.90;99.90
8420;DHT22;4247;48.550;8.822;2024-03-07T07:02:48;3.00;99.90
8420;DHT22;4247;48.550;8.822;2024-03-07T07:05:15;3.00;99.90
8420;DHT22;4247;48.550;8.822;2024-03-07T07:07:43;3.10;99.90
8420;DHT22;4247;48.550;8.822;2024-03-07T07:10:11;3.10;99.90
8420;DHT22;4247;48.550;8.822;2024-03-07T07:12:41;3.10;99.90
8420;DHT22;4247;48.550;8.822;2024-03-07T07:15:10;3.20;99.90
8420;DHT22;4247;48.550;8.822;2024-03-07T07:17:38;3.20;99.90
8420;DHT22;4247;48.550;8.822;2024-03-07T07:20:05;3.20;99.90
8420;DHT22;4247;48.550;8.822;2024-03-07T07:22:35;3.20;99.90
8420;DHT22;4247;48.550;8.822;2024-03-07T07:25:03;3.20;99.90
8420;DHT22;4247;48.550;8.822;2024-03-07T07:27:30;3.30;99.90
8420;DHT22;4247;48.550;8.822;2024-03-07T07:29:56;3.30;99.90
8420;DHT22;4247;48.550;8.822;2024-03-07T07:32:24;3.30;99.90
8420;DHT22;4247;48.550;8.822;2024-03-07T07:34:51;3.50;99.90
8420;DHT22;4247;48.550;8.822;2024-03-07T07:37:18;3.50;99.90
8420;DHT22;4247;48.550;8.822;2024-03-07T07:39:44;3.60;99.90
8420;DHT22;4247;48.550;8.822;2024-03-07T07:42:11;3.70;99.90
8420;DHT22;4247;48.550;8.822;2024-03-07T07:44:38;3.70;99.90
8420;DHT22;4247;48.550;8.822;2024-03-07T07:47:05;3.70;99.90
8420;DHT22;4247;48.550;8.822;2024-03-07T07:49:33;3.80;99.90
8420;DHT22;4247;48.550;8.822;2024-03-07T07:52:01;3.80;99.90
8420;DHT22;4247;48.550;8.822;2024-03-07T07:54:28;3.80;99.90
8420;DHT22;4247;48.550;8.822;2024-03-07T07:56:54;3.90;99.90
8420;DHT22;4247;48.550;8.822;2024-03-07T07:59:21;3.80;99.90
8420;DHT22;4247;48.550;8.822;2024-03-07T08:01:47;3.80;99.90
8420;DHT22;4247;48.550;8.822;2024-03-07T08:04:15;3.90;99.90
8420;DHT22;4247;48.550;8.822;2024-03-07T08:06:44;4.00;99.90
8420;DHT22;4247;48.550;8.822;2024-03-07T08:09:10;4.10;99.90
8420;DHT22;4247;48.550;8.822;2024-03-07T08:11:41;4.20;99.90
8420;DHT22;4247;48.550;8.822;2024-03-07T08:14:08;4.30;99.90
8420;DHT22;4247;48.550;8.822;2024-03-07T08:16:35;4.30;99.90
8420;DHT22;4247;48.550;8.822;2024-03-07T08:19:02;4.30;99.90
8420;DHT22;4247;48.550;8.822;2024-03-07T08:21:29;4.30;99.90
8420;DHT22;4247;48.550;8.822;2024-03-07T08:23:59;4.30;99.90
8420;DHT22;4247;48.550;8.822;2024-03-07T08:26:28;4.40;99.90
8420;DHT22;4247;48.550;8.822;2024-03-07T08:28:55;4.50;99.90
8420;DHT22;4247;48.550;8.822;2024-03-07T08:31:22;4.50;99.90
8420;DHT22;4247;48.550;8.822;2024-03-07T08:33:48;4.50;99.90
8420;DHT22;4247;48.550;8.822;2024-03-07T08:36:15;4.40;99.90
8420;DHT22;4247;48.550;8.822;2024-03-07T08:38:42;4.30;99.90
8420;DHT22;4247;48.550;8.822;2024-03-07T08:41:13;4.40;99.90
8420;DHT22;4247;48.550;8.822;2024-03-07T08:43:40;4.30;99.90
8420;DHT22;4247;48.550;8.822;2024-03-07T08:46:06;4.30;99.90
8420;DHT22;4247;48.550;8.822;2024-03-07T08:48:33;4.40;99.90
8420;DHT22;4247;48.550;8.822;2024-03-07T08:51:00;4.40;99.90
8420;DHT22;4247;48.550;8.822;2024-03-07T08:53:27;4.40;99.90
8420;DHT22;4247;48.550;8.822;2024-03-07T08:55:54;4.50;99.90
8420;DHT22;4247;48.550;8.822;2024-03-07T08:58:22;4.60;99.90
8420;DHT22;4247;48.550;8.822;2024-03-07T09:00:49;4.70;99.90
8420;DHT22;4247;48.550;8.822;2024-03-07T09:03:17;4.80;99.90
8420;DHT22;4247;48.550;8.822;2024-03-07T09:05:47;4.90;99.90
8420;DHT22;4247;48.550;8.822;2024-03-07T09:08:13;5.00;99.90
8420;DHT22;4247;48.550;8.822;2024-03-07T09:10:41;5.10;99.90
8420;DHT22;4247;48.550;8.822;2024-03-07T09:13:07;5.20;99.90
8420;DHT22;4247;48.550;8.822;2024-03-07T09:15:36;5.30;99.90
8420;DHT22;4247;48.550;8.822;2024-03-07T09:18:04;5.30;99.90
8420;DHT22;4247;48.550;8.822;2024-03-07T09:20:31;5.40;99.90
8420;DHT22;4247;48.550;8.822;2024-03-07T09:22:58;5.40;99.90
8420;DHT22;4247;48.550;8.822;2024-03-07T09:25:25;5.50;99.90
8420;DHT22;4247;48.550;8.822;2024-03-07T09:27:52;5.40;99.90
8420;DHT22;4247;48.550;8.822;2024-03-07T09:30:20;5.40;99.90
8420;DHT22;4247;48.550;8.822;2024-03-07T09:32:52;5.40;99.90
8420;DHT22;4247;48.550;8.822;2024-03-07T09:35:20;5.30;99.90
8420;DHT22;4247;48.550;8.822;2024-03-07T09:37:47;5.30;99.90
8420;DHT22;4247;48.550;8.822;2024-03-07T09:40:14;5.30;99.90
8420;DHT22;4247;48.550;8.822;2024-03-07T09:42:43;5.40;99.90
8420;DHT22;4247;48.550;8.822;2024-03-07T09:45:17;5.40;99.90
8420;DHT22;4247;48.550;8.822;2024-03-07T09:47:46;5.30;99.90
8420;DHT22;4247;48.550;8.822;2024-03-07T09:50:16;5.30;99.90
8420;DHT22;4247;48.550;8.822;2024-03-07T09:52:46;5.30;99.90
8420;DHT22;4247;48.550;8.822;2024-03-07T09:55:16;5.30;99.90
8420;DHT22;4247;48.550;8.822;2024-03-07T09:57:43;5.40;99.90
8420;DHT22;4247;48.550;8.822;2024-03-07T10:00:13;5.30;99.90
8420;DHT22;4247;48.550;8.822;2024-03-07T10:02:49;5.30;99.90
8420;DHT22;4247;48.550;8.822;2024-03-07T10:05:18;5.30;99.90
8420;DHT22;4247;48.550;8.822;2024-03-07T10:07:46;5.30;99.90
8420;DHT22;4247;48.550;8.822;2024-03-07T10:10:12;5.40;99.90
8420;DHT22;4247;48.550;8.822;2024-03-07T10:12:39;5.40;99.90
8420;DHT22;4247;48.550;8.822;2024-03-07T10:15:07;5.50;99.90
8420;DHT22;4247;48.550;8.822;2024-03-07T10:17:35;5.50;99.90
8420;DHT22;4247;48.550;8.822;2024-03-07T10:20:04;5.60;99.90
8420;DHT22;4247;48.550;8.822;2024-03-07T10:22:36;5.50;99.90
8420;DHT22;4247;48.550;8.822;2024-03-07T10:25:04;5.50;99.90
8420;DHT22;4247;48.550;8.822;2024-03-07T10:27:30;5.70;99.90
8420;DHT22;4247;48.550;8.822;2024-03-07T10:29:57;5.70;99.90
8420;DHT22;4247;48.550;8.822;2024-03-07T10:32:24;5.70;99.90
8420;DHT22;4247;48.550;8.822;2024-03-07T10:34:53;5.80;99.90
8420;DHT22;4247;48.550;8.822;2024-03-07T10:37:20;5.80;99.90
8420;DHT22;4247;48.550;8.822;2024-03-07T10:39:48;5.80;99.90
8420;DHT22;4247;48.550;8.822;2024-03-07T10:42:16;5.80;99.90
8420;DHT22;4247;48.550;8.822;2024-03-07T10:44:46;5.80;99.90
8420;DHT22;4247;48.550;8.822;2024-03-07T10:47:16;5.90;99.90
8420;DHT22;4247;48.550;8.822;2024-03-07T10:49:53;5.80;99.90
8420;DHT22;4247;48.550;8.822;2024-03-07T10:52:28;5.80;99.90
8420;DHT22;4247;48.550;8.822;2024-03-07T10:55:08;5.80;99.90
8420;DHT22;4247;48.550;8.822;2024-03-07T10:57:45;5.90;99.90
8420;DHT22;4247;48.550;8.822;2024-03-07T11:00:16;5.90;99.90
8420;DHT22;4247;48.550;8.822;2024-03-07T11:03:01;5.90;99.90
8420;DHT22;4247;48.550;8.822;2024-03-07T11:05:33;5.90;99.90
8420;DHT22;4247;48.550;8.822;2024-03-07T11:08:00;5.90;99.90
8420;DHT22;4247;48.550;8.822;2024-03-07T11:10:30;6.00;99.90
8420;DHT22;4247;48.550;8.822;2024-03-07T11:12:57;6.00;99.90
8420;DHT22;4247;48.550;8.822;2024-03-07T11:15:25;5.90;99.90
8420;DHT22;4247;48.550;8.822;2024-03-07T11:17:54;5.90;99.90
8420;DHT22;4247;48.550;8.822;2024-03-07T11:20:21;5.80;99.90
8420;DHT22;4247;48.550;8.822;2024-03-07T11:22:48;5.90;99.90
8420;DHT22;4247;48.550;8.822;2024-03-07T11:25:17;5.80;99.90
8420;DHT22;4247;48.550;8.822;2024-03-07T11:27:53;5.90;99.90
8420;DHT22;4247;48.550;8.822;2024-03-07T11:30:21;5.90;99.90
8420;DHT22;4247;48.550;8.822;2024-03-07T11:32:49;5.90;99.90
8420;DHT22;4247;48.550;8.822;2024-03-07T11:35:19;5.90;99.90
8420;DHT22;4247;48.550;8.822;2024-03-07T11:37:56;6.00;99.90
8420;DHT22;4247;48.550;8.822;2024-03-07T11:40:46;6.00;99.90
8420;DHT22;4247;48.550;8.822;2024-03-07T11:43:15;6.00;99.90
8420;DHT22;4247;48.550;8.822;2024-03-07T11:45:42;6.10;99.90
8420;DHT22;4247;48.550;8.822;2024-03-07T11:48:17;6.10;99.90
8420;DHT22;4247;48.550;8.822;2024-03-07T11:50:45;6.10;99.90
8420;DHT22;4247;48.550;8.822;2024-03-07T11:53:13;6.00;99.90
8420;DHT22;4247;48.550;8.822;2024-03-07T11:55:40;6.10;99.90
8420;DHT22;4247;48.550;8.822;2024-03-07T11:58:15;6.20;99.90
8420;DHT22;4247;48.550;8.822;2024-03-07T12:00:43;6.20;99.90
8420;DHT22;4247;48.550;8.822;2024-03-07T12:03:11;6.20;99.90
8420;DHT22;4247;48.550;8.822;2024-03-07T12:05:43;6.20;99.90
8420;DHT22;4247;48.550;8.822;2024-03-07T12:08:10;6.20;99.90
8420;DHT22;4247;48.550;8.822;2024-03-07T12:10:38;6.10;99.90
8420;DHT22;4247;48.550;8.822;2024-03-07T12:13:05;6.10;99.90
8420;DHT22;4247;48.550;8.822;2024-03-07T12:15:34;6.10;99.90
8420;DHT22;4247;48.550;8.822;2024-03-07T12:18:02;6.10;99.90
8420;DHT22;4247;48.550;8.822;2024-03-07T12:20:35;6.10;99.90
8420;DHT22;4247;48.550;8.822;2024-03-07T12:23:03;6.10;99.90
8420;DHT22;4247;48.550;8.822;2024-03-07T12:25:31;6.10;99.90
8420;DHT22;4247;48.550;8.822;2024-03-07T12:28:02;6.20;99.90
8420;DHT22;4247;48.550;8.822;2024-03-07T12:30:32;6.20;99.90
8420;DHT22;4247;48.550;8.822;2024-03-07T12:33:01;6.30;99.90
8420;DHT22;4247;48.550;8.822;2024-03-07T12:35:29;6.20;99.90
8420;DHT22;4247;48.550;8.822;2024-03-07T12:37:57;6.30;99.90
8420;DHT22;4247;48.550;8.822;2024-03-07T12:40:24;6.30;99.90
8420;DHT22;4247;48.550;8.822;2024-03-07T12:42:54;6.20;99.90
8420;DHT22;4247;48.550;8.822;2024-03-07T12:45:21;6.20;99.90
8420;DHT22;4247;48.550;8.822;2024-03-07T12:47:48;6.30;99.90
8420;DHT22;4247;48.550;8.822;2024-03-07T12:50:18;6.20;99.90
8420;DHT22;4247;48.550;8.822;2024-03-07T12:52:46;6.30;99.90
8420;DHT22;4247;48.550;8.822;2024-03-07T12:55:15;6.20;99.90
8420;DHT22;4247;48.550;8.822;2024-03-07T12:57:43;6.20;99.90
8420;DHT22;4247;48.550;8.822;2024-03-07T13:00:11;6.30;99.90
8420;DHT22;4247;48.550;8.822;2024-03-07T13:02:45;6.30;99.90
8420;DHT22;4247;48.550;8.822;2024-03-07T13:05:12;6.50;99.90
8420;DHT22;4247;48.550;8.822;2024-03-07T13:07:45;6.60;99.90
8420;DHT22;4247;48.550;8.822;2024-03-07T13:10:12;6.70;99.90
8420;DHT22;4247;48.550;8.822;2024-03-07T13:12:40;6.80;99.90
8420;DHT22;4247;48.550;8.822;2024-03-07T13:15:09;7.00;99.90
8420;DHT22;4247;48.550;8.822;2024-03-07T13:17:37;7.10;99.90
8420;DHT22;4247;48.550;8.822;2024-03-07T13:20:04;7.20;99.90
8420;DHT22;4247;48.550;8.822;2024-03-07T13:22:37;7.30;99.90
8420;DHT22;4247;48.550;8.822;2024-03-07T13:25:06;7.30;99.90
8420;DHT22;4247;48.550;8.822;2024-03-07T13:27:43;7.30;99.90
8420;DHT22;4247;48.550;8.822;2024-03-07T13:30:12;7.40;99.90
8420;DHT22;4247;48.550;8.822;2024-03-07T13:32:50;7.40;99.90
8420;DHT22;4247;48.550;8.822;2024-03-07T13:35:18;7.30;99.90
8420;DHT22;4247;48.550;8.822;2024-03-07T13:37:46;7.30;99.90
8420;DHT22;4247;48.550;8.822;2024-03-07T13:40:15;7.40;99.90
8420;DHT22;4247;48.550;8.822;2024-03-07T13:42:52;7.40;99.90
8420;DHT22;4247;48.550;8.822;2024-03-07T13:45:20;7.40;99.90
8420;DHT22;4247;48.550;8.822;2024-03-07T13:47:48;7.30;99.90
8420;DHT22;4247;48.550;8.822;2024-03-07T13:50:16;7.20;99.90
8420;DHT22;4247;48.550;8.822;2024-03-07T13:52:45;7.10;99.90
8420;DHT22;4247;48.550;8.822;2024-03-07T13:55:33;7.10;99.90
8420;DHT22;4247;48.550;8.822;2024-03-07T13:58:05;7.00;99.90
8420;DHT22;4247;48.550;8.822;2024-03-07T14:00:44;7.10;99.90
8420;DHT22;4247;48.550;8.822;2024-03-07T14:03:26;7.10;99.90
8420;DHT22;4247;48.550;8.822;2024-03-07T14:05:58;7.10;99.90
8420;DHT22;4247;48.550;8.822;2024-03-07T14:14:47;7.20;99.90
8420;DHT22;4247;48.550;8.822;2024-03-07T14:20:56;7.20;99.90
8420;DHT22;4247;48.550;8.822;2024-03-07T14:23:41;7.20;99.90
8420;DHT22;4247;48.550;8.822;2024-03-07T14:26:50;7.20;99.90
8420;DHT22;4247;48.550;8.822;2024-03-07T14:29:26;7.10;99.90
8420;DHT22;4247;48.550;8.822;2024-03-07T14:31:58;7.10;99.90
8420;DHT22;4247;48.550;8.822;2024-03-07T14:34:47;7.10;99.90
8420;DHT22;4247;48.550;8.822;2024-03-07T14:37:20;7.10;99.90
8420;DHT22;4247;48.550;8.822;2024-03-07T14:39:51;7.10;99.90
8420;DHT22;4247;48.550;8.822;2024-03-07T14:42:19;7.10;99.90
8420;DHT22;4247;48.550;8.822;2024-03-07T14:44:47;7.10;99.90
8420;DHT22;4247;48.550;8.822;2024-03-07T14:47:17;7.10;99.90
8420;DHT22;4247;48.550;8.822;2024-03-07T14:49:45;7.10;99.90
8420;DHT22;4247;48.550;8.822;2024-03-07T14:52:12;7.10;99.90
8420;DHT22;4247;48.550;8.822;2024-03-07T14:54:40;7.10;99.90
8420;DHT22;4247;48.550;8.822;2024-03-07T14:57:08;7.10;99.90
8420;DHT22;4247;48.550;8.822;2024-03-07T14:59:38;7.10;99.90
8420;DHT22;4247;48.550;8.822;2024-03-07T15:02:06;7.00;99.90
8420;DHT22;4247;48.550;8.822;2024-03-07T15:04:36;7.00;99.90
8420;DHT22;4247;48.550;8.822;2024-03-07T15:07:04;7.00;99.90
8420;DHT22;4247;48.550;8.822;2024-03-07T15:09:31;7.10;99.90
8420;DHT22;4247;48.550;8.822;2024-03-07T15:11:59;7.10;99.90
8420;DHT22;4247;48.550;8.822;2024-03-07T15:14:26;7.10;99.90
8420;DHT22;4247;48.550;8.822;2024-03-07T15:16:54;7.10;99.90
8420;DHT22;4247;48.550;8.822;2024-03-07T15:19:20;7.10;99.90
8420;DHT22;4247;48.550;8.822;2024-03-07T15:21:48;7.10;99.90
8420;DHT22;4247;48.550;8.822;2024-03-07T15:24:18;7.20;99.90
8420;DHT22;4247;48.550;8.822;2024-03-07T15:26:46;7.20;99.90
8420;DHT22;4247;48.550;8.822;2024-03-07T15:29:15;7.20;99.90
8420;DHT22;4247;48.550;8.822;2024-03-07T15:31:47;7.20;99.90
8420;DHT22;4247;48.550;8.822;2024-03-07T15:34:16;7.20;99.90
8420;DHT22;4247;48.550;8.822;2024-03-07T15:36:42;7.20;99.90
8420;DHT22;4247;48.550;8.822;2024-03-07T15:39:09;7.20;99.90
8420;DHT22;4247;48.550;8.822;2024-03-07T15:41:45;7.20;99.90
8420;DHT22;4247;48.550;8.822;2024-03-07T15:44:12;7.20;99.90
8420;DHT22;4247;48.550;8.822;2024-03-07T15:46:38;7.20;99.90
8420;DHT22;4247;48.550;8.822;2024-03-07T15:49:05;7.20;99.90
8420;DHT22;4247;48.550;8.822;2024-03-07T15:51:34;7.20;99.90
8420;DHT22;4247;48.550;8.822;2024-03-07T15:54:01;7.20;99.90
8420;DHT22;4247;48.550;8.822;2024-03-07T15:56:30;7.10;99.90
8420;DHT22;4247;48.550;8.822;2024-03-07T15:58:57;7.10;99.90
8420;DHT22;4247;48.550;8.822;2024-03-07T16:01:24;7.10;99.90
8420;DHT22;4247;48.550;8.822;2024-03-07T16:03:50;7.10;99.90
8420;DHT22;4247;48.550;8.822;2024-03-07T16:06:17;7.10;99.90
8420;DHT22;4247;48.550;8.822;2024-03-07T16:08:45;7.10;99.90
8420;DHT22;4247;48.550;8.822;2024-03-07T16:11:13;7.10;99.90
8420;DHT22;4247;48.550;8.822;2024-03-07T16:13:39;7.10;99.90
8420;DHT22;4247;48.550;8.822;2024-03-07T16:16:06;7.10;99.90
8420;DHT22;4247;48.550;8.822;2024-03-07T16:18:33;7.00;99.90
8420;DHT22;4247;48.550;8.822;2024-03-07T16:20:59;7.00;99.90
8420;DHT22;4247;48.550;8.822;2024-03-07T16:23:26;7.00;99.90
8420;DHT22;4247;48.550;8.822;2024-03-07T16:25:55;7.00;99.90
8420;DHT22;4247;48.550;8.822;2024-03-07T16:28:21;7.00;99.90
8420;DHT22;4247;48.550;8.822;2024-03-07T16:30:52;6.90;99.90
8420;DHT22;4247;48.550;8.822;2024-03-07T16:33:21;6.90;99.90
8420;DHT22;4247;48.550;8.822;2024-03-07T16:35:50;6.90;99.90